Gordon, Texas
Current Conditions -  °F | °C
As of 11:53 PM on Wednesday 22 Oct 2014 (Local Time) from KMWL Reporting Station
Broken Clouds Broken Clouds  
Wind Chill: 67°   Ceiling: 8000
Heat Index: 67°   Visibility: 8mi
Dew Point: 59°   Wind: 6mph
Humidity: 76%   Direction: 140°SE
Pressure: 30.09"   Gusts: NA
Location:  32.55°N, 98.37°W
Report Text: KMWL 230453Z AUTO 14005KT 8SM BKN080 19/15 A3009 RMK AO2 SLP179 T01940150
Loading
Personal Weather Stations






























Interactive Weather Map
Tropical Storm Tracking
New forecast layout! Learn more

10-Day Weather Forecast

Advertisements
Track Severe Weather on mobile